Cutten, California
Current Conditions -  °F | °C
As of 7:53 AM on Friday 24 Oct 2014 (Local Time) from KACV Reporting Station
Overcast Overcast  
Wind Chill: 56°   Ceiling: 4100
Heat Index: 56°   Visibility: 10mi
Dew Point: 54°   Wind: 3mph
Humidity: 93%   Direction: 110°ESE
Pressure: 29.84"   Gusts: NA
Location:  40.77°N, 124.14°W
Report Text: KACV 241453Z AUTO 11003KT 10SM OVC041 13/12 A2984 RMK AO2 RAB13E38 SLP109 P0000 60007 T01330122 58029
Loading
Personal Weather Stations






























Interactive Weather Map
Tropical Storm Tracking
New forecast layout! Learn more

10-Day Weather Forecast

Advertisements
Track Severe Weather on mobile